Time;durP1;ratioP1;P1;durP2;ratioP2;P2;SDS_P1;SDS_P2;PMS_P1;PMS_P2;Temp;Humidity;BMP_temperature;BMP_pressure;BME280_temperature;BME280_humidity;BME280_pressure;Samples;Min_cycle;Max_cycle;Signal;HPM_P1;HPM_P2
2021/07/04 00:00:22;;;;;;;4.47;3.22;;;17.90;99.90;;;;;;5031428;28;20029;-82
2021/07/04 00:02:53;;;;;;;3.55;2.85;;;17.90;99.90;;;;;;5047741;28;20119;-82
2021/07/04 00:05:20;;;;;;;3.45;2.97;;;17.90;99.90;;;;;;5047839;28;20044;-82
2021/07/04 00:07:46;;;;;;;3.55;2.67;;;17.90;99.90;;;;;;5047657;28;20040;-81
2021/07/04 00:10:18;;;;;;;4.47;3.38;;;17.90;99.90;;;;;;5047835;28;20029;-82
2021/07/04 00:12:44;;;;;;;2.83;2.22;;;17.80;99.90;;;;;;5047593;28;20029;-83
2021/07/04 00:15:13;;;;;;;3.30;2.60;;;17.90;99.90;;;;;;5031237;28;20028;-82
2021/07/04 00:17:39;;;;;;;3.17;2.65;;;17.90;99.90;;;;;;5030878;28;20564;-82
2021/07/04 00:20:11;;;;;;;3.42;3.00;;;17.80;99.90;;;;;;5065574;28;20033;-81
2021/07/04 00:22:36;;;;;;;3.28;2.88;;;17.80;99.90;;;;;;5047199;28;20033;-82
2021/07/04 00:25:05;;;;;;;3.35;2.80;;;17.80;99.90;;;;;;5047592;28;20056;-82
2021/07/04 00:27:31;;;;;;;3.77;3.43;;;17.70;99.90;;;;;;5030846;28;20029;-82
2021/07/04 00:29:57;;;;;;;4.22;2.97;;;17.80;99.90;;;;;;5031194;28;20115;-82
2021/07/04 00:32:24;;;;;;;4.20;2.88;;;17.80;99.90;;;;;;5047242;28;20021;-82
2021/07/04 00:34:49;;;;;;;2.80;2.15;;;17.90;99.90;;;;;;5049177;28;20086;-82
2021/07/04 00:37:15;;;;;;;3.70;2.60;;;17.90;99.90;;;;;;5051555;28;20100;-82
2021/07/04 00:39:40;;;;;;;3.42;2.45;;;17.90;99.90;;;;;;5069478;28;20048;-81
2021/07/04 00:42:07;;;;;;;3.60;3.08;;;17.90;99.90;;;;;;5051307;28;20056;-81
2021/07/04 00:44:33;;;;;;;3.70;2.65;;;17.90;99.90;;;;;;5069186;28;20037;-82
2021/07/04 00:46:59;;;;;;;4.53;3.17;;;18.00;99.90;;;;;;5051095;28;20036;-80
2021/07/04 00:49:24;;;;;;;6.15;4.65;;;18.00;99.90;;;;;;5050877;28;20047;-80
2021/07/04 00:51:50;;;;;;;4.40;3.88;;;17.90;99.90;;;;;;5051152;28;20029;-81
2021/07/04 00:54:17;;;;;;;4.20;3.72;;;17.90;99.90;;;;;;5050695;28;20035;-81
2021/07/04 00:56:43;;;;;;;4.38;3.92;;;17.90;99.90;;;;;;5067525;28;20060;-82
2021/07/04 00:59:12;;;;;;;5.10;3.88;;;18.00;99.90;;;;;;5051024;28;20029;-82
2021/07/04 01:01:37;;;;;;;5.88;4.75;;;18.00;99.90;;;;;;5051118;28;20028;-82
2021/07/04 01:04:04;;;;;;;5.72;4.95;;;18.00;99.90;;;;;;5034316;28;20053;-82
2021/07/04 01:06:30;;;;;;;8.77;5.13;;;17.90;99.90;;;;;;5050782;28;20025;-81
2021/07/04 01:08:56;;;;;;;5.50;4.70;;;17.80;99.90;;;;;;5050810;28;20304;-82
2021/07/04 01:11:22;;;;;;;7.40;4.80;;;17.80;99.90;;;;;;5050783;28;20040;-82
2021/07/04 01:13:47;;;;;;;6.78;5.00;;;17.70;99.90;;;;;;5050558;28;20032;-83
2021/07/04 01:16:16;;;;;;;5.10;4.60;;;17.80;99.90;;;;;;5050642;28;20032;-83
2021/07/04 01:18:43;;;;;;;5.78;5.18;;;17.90;99.90;;;;;;5034423;28;20033;-82
2021/07/04 01:21:15;;;;;;;6.60;4.95;;;17.90;99.90;;;;;;5035067;28;20043;-83
2021/07/04 01:23:42;;;;;;;5.18;4.57;;;17.90;99.90;;;;;;5050361;28;20136;-83
2021/07/04 01:26:08;;;;;;;6.00;5.40;;;17.90;99.90;;;;;;5050520;28;20029;-83
2021/07/04 01:28:34;;;;;;;4.60;4.20;;;17.80;99.90;;;;;;5034075;28;20033;-83
2021/07/04 01:31:06;;;;;;;5.60;5.03;;;17.80;99.90;;;;;;5050516;28;20056;-82
2021/07/04 01:33:34;;;;;;;5.57;5.07;;;17.80;99.90;;;;;;5050481;28;20029;-83
2021/07/04 01:36:05;;;;;;;6.10;4.97;;;17.80;99.90;;;;;;5034206;28;20029;-83
2021/07/04 01:38:32;;;;;;;6.05;4.72;;;17.80;99.90;;;;;;5033719;28;20029;-82
2021/07/04 01:41:00;;;;;;;5.10;4.45;;;17.80;99.90;;;;;;5050357;28;20025;-83
2021/07/04 01:43:27;;;;;;;5.50;4.68;;;17.90;99.90;;;;;;5049989;28;20054;-82
2021/07/04 01:45:53;;;;;;;6.53;4.75;;;17.90;99.90;;;;;;5050172;28;20020;-83
2021/07/04 01:48:19;;;;;;;5.25;4.75;;;17.90;99.90;;;;;;5049767;28;20033;-81
2021/07/04 01:50:49;;;;;;;6.18;5.07;;;17.80;99.90;;;;;;5050222;28;20028;-82
2021/07/04 01:53:19;;;;;;;5.45;4.85;;;17.80;99.90;;;;;;5050018;28;20025;-81
2021/07/04 01:55:50;;;;;;;5.93;4.65;;;17.80;99.90;;;;;;5034174;28;20045;-83
2021/07/04 01:58:18;;;;;;;5.13;4.63;;;17.70;99.90;;;;;;5033494;28;20092;-82
2021/07/04 02:00:53;;;;;;;6.60;5.05;;;17.70;99.90;;;;;;5034923;28;20033;-82
2021/07/04 02:03:19;;;;;;;6.53;5.25;;;17.70;99.90;;;;;;5049914;28;20036;-81
2021/07/04 02:05:50;;;;;;;6.25;4.68;;;17.70;99.90;;;;;;5050147;28;20060;-82
2021/07/04 02:08:23;;;;;;;12.07;5.32;;;17.70;99.90;;;;;;5049841;28;20036;-82
2021/07/04 02:10:52;;;;;;;5.38;4.50;;;17.70;99.90;;;;;;5033862;28;20288;-82
2021/07/04 02:13:18;;;;;;;6.20;5.18;;;17.60;99.90;;;;;;5033145;28;20060;-81
2021/07/04 02:15:50;;;;;;;5.82;5.22;;;17.60;99.90;;;;;;5033727;28;20408;-81
2021/07/04 02:18:34;;;;;;;5.22;4.55;;;17.60;99.90;;;;;;5052515;28;20056;-81
2021/07/04 02:21:03;;;;;;;6.13;4.90;;;17.60;99.90;;;;;;5050110;28;20073;-81
2021/07/04 02:23:35;;;;;;;6.47;5.45;;;17.60;99.90;;;;;;5067398;28;20163;-82
2021/07/04 02:26:09;;;;;;;6.38;4.72;;;17.70;99.90;;;;;;5033996;28;20096;-82
2021/07/04 02:28:39;;;;;;;6.63;5.63;;;17.60;99.90;;;;;;5049447;28;20056;-82
2021/07/04 02:31:14;;;;;;;6.35;5.35;;;17.60;99.90;;;;;;5049527;28;20029;-82
2021/07/04 02:33:41;;;;;;;7.85;5.93;;;17.60;99.90;;;;;;5049271;28;20025;-82
2021/07/04 02:36:07;;;;;;;6.97;5.93;;;17.50;99.90;;;;;;5049352;28;20036;-81
2021/07/04 02:38:33;;;;;;;6.35;5.70;;;17.50;99.90;;;;;;5032877;28;20116;-82
2021/07/04 02:41:00;;;;;;;5.57;4.97;;;17.50;99.90;;;;;;5049284;28;20549;-81
2021/07/04 02:43:26;;;;;;;6.53;5.85;;;17.50;99.90;;;;;;5048883;28;20501;-79
2021/07/04 02:45:57;;;;;;;6.18;5.30;;;17.60;99.90;;;;;;5048985;28;20029;-82
2021/07/04 02:48:23;;;;;;;9.32;7.13;;;17.60;99.90;;;;;;5048878;28;20048;-82
2021/07/04 02:50:51;;;;;;;7.05;6.35;;;17.60;99.90;;;;;;5066964;28;20085;-82
2021/07/04 02:53:22;;;;;;;7.25;6.05;;;17.60;99.90;;;;;;5048705;28;20087;-82
2021/07/04 02:55:50;;;;;;;7.70;6.93;;;17.60;99.90;;;;;;5032386;28;20496;-82
2021/07/04 02:58:18;;;;;;;6.97;6.28;;;17.60;99.90;;;;;;5031961;28;20539;-82
2021/07/04 03:00:45;;;;;;;6.82;6.10;;;17.50;99.90;;;;;;5032503;28;20056;-83
2021/07/04 03:03:13;;;;;;;9.07;7.00;;;17.50;99.90;;;;;;5032265;28;20029;-82
2021/07/04 03:05:41;;;;;;;7.32;6.63;;;17.50;99.90;;;;;;5048493;28;20040;-82
2021/07/04 03:08:07;;;;;;;7.50;6.80;;;17.50;99.90;;;;;;5048535;28;20029;-82
2021/07/04 03:10:33;;;;;;;8.63;7.28;;;17.50;99.90;;;;;;5048608;28;20044;-82
2021/07/04 03:12:59;;;;;;;8.43;6.35;;;17.50;99.90;;;;;;5048397;28;20025;-84
2021/07/04 03:15:26;;;;;;;7.18;5.97;;;17.40;99.90;;;;;;5031793;28;20045;-82
2021/07/04 03:17:54;;;;;;;7.43;6.30;;;17.40;99.90;;;;;;5048112;28;20036;-82
2021/07/04 03:20:23;;;;;;;7.03;6.15;;;17.40;99.90;;;;;;5032253;28;20025;-82
2021/07/04 03:22:56;;;;;;;8.40;6.70;;;17.50;99.90;;;;;;5032669;28;20036;-82
2021/07/04 03:25:22;;;;;;;6.55;5.75;;;17.50;99.90;;;;;;5048137;28;20029;-82
2021/07/04 03:27:48;;;;;;;7.78;6.72;;;17.50;99.90;;;;;;5031651;28;20092;-81
2021/07/04 03:30:22;;;;;;;8.73;7.15;;;17.50;99.90;;;;;;5048118;28;20028;-81
2021/07/04 03:32:50;;;;;;;7.18;5.40;;;17.50;99.90;;;;;;5031689;28;20108;-82
2021/07/04 03:35:19;;;;;;;8.20;6.13;;;17.50;99.90;;;;;;5032278;28;20040;-82
2021/07/04 03:37:48;;;;;;;8.52;6.10;;;17.50;99.90;;;;;;5031775;28;20021;-82
2021/07/04 03:40:20;;;;;;;6.75;5.40;;;17.50;99.90;;;;;;5031798;28;20032;-82
2021/07/04 03:42:51;;;;;;;7.88;5.72;;;17.50;99.90;;;;;;5032184;28;20040;-82
2021/07/04 03:45:21;;;;;;;8.55;6.63;;;17.50;99.90;;;;;;5047936;28;20033;-81
2021/07/04 03:47:48;;;;;;;8.15;6.93;;;17.50;99.90;;;;;;5062605;23;20190;-81
2021/07/04 03:50:17;;;;;;;7.20;6.00;;;17.50;99.90;;;;;;5068275;28;20050;-82
2021/07/04 03:52:46;;;;;;;8.05;6.20;;;17.50;99.90;;;;;;5068035;28;20036;-80
2021/07/04 03:55:15;;;;;;;;;;;17.50;99.90;;;;;;5068591;28;20162;-82
2021/07/04 03:57:43;;;;;;;7.10;6.13;;;17.50;99.90;;;;;;5067884;28;19930;-81
2021/07/04 04:00:22;;;;;;;7.57;6.23;;;17.50;99.90;;;;;;5067722;28;20032;-82
2021/07/04 04:02:57;;;;;;;6.40;5.80;;;17.50;99.90;;;;;;5067521;28;20043;-81
2021/07/04 04:05:29;;;;;;;6.70;6.00;;;17.50;99.90;;;;;;5067885;28;20028;-81
2021/07/04 04:07:56;;;;;;;8.80;7.70;;;17.50;99.90;;;;;;5067562;28;20024;-80
2021/07/04 04:10:23;;;;;;;9.45;7.75;;;17.40;99.90;;;;;;5066881;28;20025;-81
2021/07/04 04:12:51;;;;;;;8.77;7.03;;;17.40;99.90;;;;;;5067471;28;20032;-81
2021/07/04 04:15:17;;;;;;;8.45;7.43;;;17.40;99.90;;;;;;5067500;28;20032;-82
2021/07/04 04:17:47;;;;;;;8.02;7.05;;;17.40;99.90;;;;;;5067388;28;20036;-81
2021/07/04 04:20:16;;;;;;;9.48;7.90;;;17.40;99.90;;;;;;5051520;28;20032;-82
2021/07/04 04:22:45;;;;;;;8.20;7.15;;;17.50;99.90;;;;;;5067249;28;20044;-82
2021/07/04 04:25:14;;;;;;;8.27;7.32;;;17.50;99.90;;;;;;5067566;28;20043;-82
2021/07/04 04:27:41;;;;;;;7.75;6.93;;;17.50;99.90;;;;;;5066664;28;20025;-82
2021/07/04 04:30:11;;;;;;;8.45;7.45;;;17.50;99.90;;;;;;5050661;28;20033;-81
2021/07/04 04:32:38;;;;;;;9.05;7.30;;;17.50;99.90;;;;;;5066541;28;20032;-82
2021/07/04 04:35:06;;;;;;;8.68;7.72;;;17.50;99.90;;;;;;5066999;28;20024;-82
2021/07/04 04:37:32;;;;;;;8.27;7.45;;;17.60;99.90;;;;;;5066572;28;20029;-81
2021/07/04 04:39:58;;;;;;;8.52;7.18;;;17.60;99.90;;;;;;5066619;28;20040;-82
2021/07/04 04:42:25;;;;;;;7.90;7.00;;;17.60;99.90;;;;;;5066538;28;20029;-82
2021/07/04 04:44:51;;;;;;;8.98;7.78;;;17.70;99.90;;;;;;5066631;28;20036;-81
2021/07/04 04:47:16;;;;;;;10.13;7.82;;;17.70;99.90;;;;;;5084125;28;20028;-82
2021/07/04 04:49:42;;;;;;;9.48;8.43;;;17.70;99.90;;;;;;5066689;28;20037;-81
2021/07/04 04:52:08;;;;;;;9.35;8.35;;;17.80;99.90;;;;;;5066379;28;20036;-82
2021/07/04 04:54:33;;;;;;;11.35;9.25;;;17.90;99.90;;;;;;5084538;28;20099;-81
2021/07/04 04:57:06;;;;;;;10.82;9.52;;;17.90;99.90;;;;;;5066270;28;20032;-82
2021/07/04 04:59:38;;;;;;;10.88;9.73;;;18.10;99.90;;;;;;5066635;28;20021;-82
2021/07/04 05:02:05;;;;;;;10.23;8.95;;;18.10;99.90;;;;;;5066185;28;20032;-82
2021/07/04 05:04:31;;;;;;;9.60;8.43;;;18.20;99.90;;;;;;5066589;28;20032;-82
2021/07/04 05:06:57;;;;;;;10.98;9.80;;;18.30;99.90;;;;;;5049518;28;20039;-81
2021/07/04 05:09:23;;;;;;;9.38;8.27;;;18.50;99.90;;;;;;5066472;28;20037;-82
2021/07/04 05:11:50;;;;;;;10.38;9.07;;;18.60;99.90;;;;;;5084549;28;20029;-81
2021/07/04 05:14:16;;;;;;;9.95;8.75;;;18.80;99.90;;;;;;5084302;28;20092;-82
2021/07/04 05:16:45;;;;;;;10.20;9.20;;;18.90;99.90;;;;;;5062781;28;20396;-82
2021/07/04 05:19:13;;;;;;;10.65;9.20;;;18.90;99.90;;;;;;5064180;28;20032;-81
2021/07/04 05:21:39;;;;;;;11.30;8.68;;;19.00;99.90;;;;;;5066563;28;20057;-80
2021/07/04 05:24:07;;;;;;;9.10;8.20;;;19.10;99.90;;;;;;5049572;28;20060;-79
2021/07/04 05:26:34;;;;;;;11.03;8.07;;;19.20;99.90;;;;;;5049758;28;20477;-81
2021/07/04 05:29:00;;;;;;;9.13;7.55;;;19.20;99.90;;;;;;5067522;28;20280;-81
2021/07/04 05:31:26;;;;;;;9.07;8.20;;;19.20;99.90;;;;;;5067434;28;20052;-81
2021/07/04 05:33:52;;;;;;;9.48;8.48;;;19.20;99.90;;;;;;5067353;28;20549;-81
2021/07/04 05:36:18;;;;;;;11.27;9.45;;;19.40;99.90;;;;;;5049815;28;20028;-81
2021/07/04 05:38:44;;;;;;;12.90;10.68;;;19.60;99.90;;;;;;5049857;28;20033;-81
2021/07/04 05:41:11;;;;;;;13.32;11.55;;;19.70;99.90;;;;;;5067467;28;20024;-81
2021/07/04 05:43:39;;;;;;;11.70;10.60;;;19.60;99.90;;;;;;5050058;28;20094;-81
2021/07/04 05:46:05;;;;;;;12.95;11.15;;;19.40;99.90;;;;;;5082194;28;20025;-81
2021/07/04 05:48:31;;;;;;;12.63;10.93;;;19.30;99.90;;;;;;5048907;28;20045;-80
2021/07/04 05:50:57;;;;;;;11.65;10.45;;;19.20;99.90;;;;;;5032868;28;20024;-81
2021/07/04 05:53:23;;;;;;;13.30;11.85;;;19.10;99.90;;;;;;5058594;28;20088;-81
2021/07/04 05:55:49;;;;;;;11.50;10.30;;;19.00;99.90;;;;;;5068998;28;20036;-81
2021/07/04 05:58:15;;;;;;;11.10;9.60;;;19.00;99.90;;;;;;5069005;28;20032;-81
2021/07/04 06:00:41;;;;;;;12.35;11.20;;;19.00;99.90;;;;;;5086881;28;20047;-81
2021/07/04 06:03:07;;;;;;;10.55;8.73;;;19.00;99.90;;;;;;5068771;28;20044;-81
2021/07/04 06:05:32;;;;;;;11.85;10.18;;;19.20;99.90;;;;;;5069051;28;20051;-82
2021/07/04 06:07:58;;;;;;;11.45;9.93;;;19.40;99.90;;;;;;5068862;28;20092;-81
2021/07/04 06:10:27;;;;;;;7.65;6.85;;;19.70;99.90;;;;;;5052272;28;20035;-81
2021/07/04 06:12:54;;;;;;;7.60;6.40;;;19.70;99.90;;;;;;5068856;28;20031;-81
2021/07/04 06:15:19;;;;;;;10.07;7.30;;;19.80;99.90;;;;;;5068470;28;20058;-81
2021/07/04 06:17:45;;;;;;;7.60;6.65;;;19.90;99.90;;;;;;5086618;28;20048;-81
2021/07/04 06:20:14;;;;;;;6.85;6.13;;;20.40;99.90;;;;;;5052149;28;20431;-81
2021/07/04 06:22:40;;;;;;;7.72;6.65;;;20.40;99.90;;;;;;5086624;28;20079;-81
2021/07/04 06:25:07;;;;;;;6.00;5.07;;;20.70;99.90;;;;;;5052015;28;20033;-81
2021/07/04 06:27:33;;;;;;;8.35;6.72;;;20.70;99.90;;;;;;5043837;28;20246;-81
2021/07/04 06:29:59;;;;;;;7.50;6.60;;;20.40;99.90;;;;;;5051519;28;20068;-81
2021/07/04 06:32:27;;;;;;;12.80;9.50;;;20.10;99.90;;;;;;5067178;28;20036;-81
2021/07/04 06:34:53;;;;;;;11.07;8.60;;;19.70;99.90;;;;;;5068358;28;20029;-79
2021/07/04 06:37:19;;;;;;;6.93;6.22;;;19.60;99.90;;;;;;5068218;28;20066;-81
2021/07/04 06:39:44;;;;;;;12.90;7.00;;;19.70;99.90;;;;;;5068068;28;20050;-80
2021/07/04 06:42:10;;;;;;;10.45;7.63;;;19.50;99.90;;;;;;5086329;28;20033;-81
2021/07/04 06:44:37;;;;;;;8.55;7.22;;;19.30;99.90;;;;;;5067897;28;20045;-81
2021/07/04 06:47:04;;;;;;;9.90;8.63;;;19.20;99.90;;;;;;5085968;28;20024;-80
2021/07/04 06:49:30;;;;;;;9.73;8.18;;;19.50;99.90;;;;;;5067599;28;20492;-81
2021/07/04 06:51:56;;;;;;;9.88;7.97;;;20.10;99.90;;;;;;5067707;28;20088;-81
2021/07/04 06:54:22;;;;;;;9.40;8.00;;;20.20;99.90;;;;;;5067853;28;20085;-81
2021/07/04 06:56:47;;;;;;;10.95;8.18;;;20.60;99.90;;;;;;5067980;28;20060;-81
2021/07/04 06:59:13;;;;;;;8.07;6.47;;;20.90;99.90;;;;;;5067700;28;20058;-81
2021/07/04 07:01:39;;;;;;;8.10;6.32;;;21.50;99.90;;;;;;5050936;28;20024;-81
2021/07/04 07:04:04;;;;;;;8.23;6.90;;;21.90;99.90;;;;;;5051374;28;20491;-81
2021/07/04 07:06:30;;;;;;;8.65;6.97;;;21.60;99.90;;;;;;5085113;28;20052;-81
2021/07/04 07:08:55;;;;;;;7.53;6.75;;;21.40;99.90;;;;;;5051066;28;20033;-81
2021/07/04 07:11:21;;;;;;;9.10;7.85;;;21.00;99.90;;;;;;5068143;28;20031;-81
2021/07/04 07:13:47;;;;;;;8.07;7.28;;;21.00;99.90;;;;;;5067864;28;20054;-81
2021/07/04 07:16:13;;;;;;;8.13;7.00;;;21.00;99.90;;;;;;5051146;28;20073;-82
2021/07/04 07:18:38;;;;;;;7.95;7.13;;;21.00;99.90;;;;;;5067794;28;20506;-81
2021/07/04 07:21:04;;;;;;;10.07;8.40;;;21.50;99.90;;;;;;5051496;28;20017;-81
2021/07/04 07:23:30;;;;;;;9.10;8.20;;;21.70;99.90;;;;;;5051384;28;20060;-81
2021/07/04 07:25:56;;;;;;;8.80;7.90;;;21.30;99.90;;;;;;5051420;28;20043;-81
2021/07/04 07:28:22;;;;;;;9.43;8.45;;;21.00;99.90;;;;;;5067634;28;20028;-80
2021/07/04 07:30:57;;;;;;;8.63;7.82;;;20.80;99.90;;;;;;5067594;28;20032;-80
2021/07/04 07:33:26;;;;;;;8.40;7.47;;;20.90;99.90;;;;;;5067456;28;20024;-80
2021/07/04 07:35:52;;;;;;;6.70;5.63;;;21.30;99.90;;;;;;5067281;28;20368;-81
2021/07/04 07:38:18;;;;;;;8.65;7.75;;;21.30;99.90;;;;;;5050926;28;20032;-81
2021/07/04 07:40:44;;;;;;;9.15;8.25;;;20.90;99.90;;;;;;5067421;28;20048;-81
2021/07/04 07:43:10;;;;;;;10.18;8.65;;;20.90;99.90;;;;;;5050490;28;20048;-81
2021/07/04 07:45:39;;;;;;;9.85;8.80;;;20.90;99.90;;;;;;5050857;28;20393;-81
2021/07/04 07:48:08;;;;;;;9.13;8.27;;;21.10;99.90;;;;;;5066989;28;20025;-81
2021/07/04 07:50:46;;;;;;;10.13;8.88;;;21.30;99.90;;;;;;5052248;28;20044;-81
2021/07/04 07:53:12;;;;;;;10.20;8.40;;;21.60;99.90;;;;;;5067124;28;20519;-81
2021/07/04 07:55:38;;;;;;;9.48;8.57;;;21.50;99.90;;;;;;5046864;28;20029;-81
2021/07/04 07:58:04;;;;;;;7.65;6.93;;;21.80;99.90;;;;;;5046875;28;20028;-81
2021/07/04 08:00:31;;;;;;;8.65;7.85;;;21.90;99.90;;;;;;5047348;28;20029;-81
2021/07/04 08:02:56;;;;;;;9.63;8.50;;;22.10;99.90;;;;;;5064817;28;20029;-81
2021/07/04 08:05:23;;;;;;;9.23;8.27;;;22.20;99.90;;;;;;5063541;28;20032;-81
2021/07/04 08:07:50;;;;;;;10.35;9.40;;;21.80;99.90;;;;;;5047041;28;20028;-81
2021/07/04 08:10:18;;;;;;;9.82;8.60;;;21.90;99.90;;;;;;5046867;28;20041;-81
2021/07/04 08:12:44;;;;;;;11.70;9.93;;;21.80;99.90;;;;;;5047047;28;20165;-81
2021/07/04 08:15:11;;;;;;;8.95;7.97;;;21.60;99.90;;;;;;5064542;28;20039;-81
2021/07/04 08:17:36;;;;;;;11.40;8.75;;;21.50;99.90;;;;;;5063302;28;20035;-81
2021/07/04 08:20:04;;;;;;;9.48;7.38;;;21.30;99.90;;;;;;5047072;28;20036;-81
2021/07/04 08:22:30;;;;;;;10.75;9.43;;;21.10;99.90;;;;;;5063590;28;20033;-81
2021/07/04 08:24:55;;;;;;;9.38;7.60;;;20.60;99.90;;;;;;5047975;28;20033;-81
2021/07/04 08:27:21;;;;;;;9.30;7.70;;;20.80;99.90;;;;;;5046956;28;20120;-81
2021/07/04 08:29:46;;;;;;;9.00;8.10;;;20.70;99.90;;;;;;5064838;28;20079;-83
2021/07/04 08:32:12;;;;;;;9.30;7.97;;;20.60;99.90;;;;;;5049168;28;20029;-81
2021/07/04 08:34:38;;;;;;;11.15;9.80;;;20.50;99.90;;;;;;5050166;28;20063;-81
2021/07/04 08:37:04;;;;;;;9.40;8.45;;;20.20;99.90;;;;;;5065693;28;20527;-80
2021/07/04 08:39:31;;;;;;;9.90;8.50;;;20.30;99.90;;;;;;5084731;28;20028;-81
2021/07/04 08:41:57;;;;;;;9.52;8.10;;;20.40;99.90;;;;;;5066515;28;20460;-81
2021/07/04 08:44:22;;;;;;;10.80;9.70;;;20.90;99.90;;;;;;5065863;28;20033;-80
2021/07/04 08:46:48;;;;;;;9.15;8.20;;;21.40;99.90;;;;;;5084094;28;20055;-82
2021/07/04 08:49:14;;;;;;;11.13;8.63;;;22.00;99.90;;;;;;5049599;28;20072;-81
2021/07/04 08:51:40;;;;;;;9.73;7.85;;;22.10;99.90;;;;;;5065884;28;20037;-82
2021/07/04 08:54:06;;;;;;;18.85;13.50;;;21.80;99.90;;;;;;5084297;28;20088;-82
2021/07/04 08:56:32;;;;;;;18.67;13.63;;;21.30;99.90;;;;;;5051951;28;20024;-82
2021/07/04 08:58:58;;;;;;;11.88;9.88;;;21.30;99.90;;;;;;5088314;28;20059;-81
2021/07/04 09:01:25;;;;;;;8.60;7.25;;;21.10;99.90;;;;;;5083616;28;20017;-82
2021/07/04 09:04:08;;;;;;;9.27;7.60;;;21.40;99.90;;;;;;5068302;28;20401;-82
2021/07/04 09:06:39;;;;;;;17.20;13.50;;;21.70;99.90;;;;;;5050180;28;20025;-81
2021/07/04 09:09:30;;;;;;;19.88;14.40;;;21.40;99.90;;;;;;5079416;28;20083;-82
2021/07/04 09:12:04;;;;;;;21.58;16.98;;;21.20;99.90;;;;;;5051813;28;20053;-81
2021/07/04 09:14:32;;;;;;;18.10;14.57;;;21.30;99.90;;;;;;5057224;28;20078;-81
2021/07/04 09:16:59;;;;;;;20.10;15.10;;;21.40;99.90;;;;;;5050053;28;20040;-82
2021/07/04 09:19:59;;;;;;;20.25;15.73;;;21.20;99.90;;;;;;5044520;28;20059;-81
2021/07/04 09:22:35;;;;;;;19.48;15.50;;;21.20;99.90;;;;;;5048704;28;20505;-81
2021/07/04 09:25:12;;;;;;;15.60;12.30;;;21.20;99.90;;;;;;5030753;28;20079;-82
2021/07/04 09:28:24;;;;;;;15.32;11.70;;;21.20;99.90;;;;;;5025240;28;20040;-81
2021/07/04 09:30:50;;;;;;;14.52;11.57;;;21.40;99.90;;;;;;5029050;28;20045;-81
2021/07/04 09:33:31;;;;;;;18.77;13.90;;;21.50;99.90;;;;;;5032853;28;20071;-82
2021/07/04 09:36:00;;;;;;;16.10;12.55;;;21.30;99.90;;;;;;5033109;28;20036;-81
2021/07/04 09:38:31;;;;;;;13.45;11.00;;;21.30;99.90;;;;;;5067387;28;20052;-82
2021/07/04 09:40:57;;;;;;;19.35;16.65;;;21.20;99.90;;;;;;5049856;28;20029;-81
2021/07/04 09:43:23;;;;;;;19.48;14.80;;;21.10;99.90;;;;;;5049347;28;20052;-81
2021/07/04 09:45:54;;;;;;;20.30;15.80;;;21.00;99.90;;;;;;5033077;28;20041;-82
2021/07/04 09:48:42;;;;;;;20.52;16.38;;;21.00;99.90;;;;;;5055744;23;20088;-81
2021/07/04 09:51:26;;;;;;;21.42;16.27;;;21.00;99.90;;;;;;5067298;28;20071;-81
2021/07/04 09:53:57;;;;;;;18.15;14.32;;;21.20;99.90;;;;;;5049526;28;20094;-82
2021/07/04 09:56:24;;;;;;;23.35;18.55;;;21.60;99.90;;;;;;5033174;28;20029;-81
2021/07/04 09:58:55;;;;;;;20.55;15.30;;;22.20;99.90;;;;;;5049558;28;20029;-82
2021/07/04 10:01:43;;;;;;;22.05;16.08;;;22.60;99.90;;;;;;5049706;28;20040;-80
2021/07/04 10:04:25;;;;;;;13.77;12.00;;;22.50;99.90;;;;;;5033065;28;20040;-81
2021/07/04 10:06:52;;;;;;;17.40;13.52;;;23.20;99.90;;;;;;5066383;28;20033;-80
2021/07/04 10:09:21;;;;;;;14.48;12.95;;;23.40;99.90;;;;;;5067295;28;20041;-82
2021/07/04 10:11:48;;;;;;;18.33;14.23;;;23.60;99.90;;;;;;5033037;28;20100;-80
2021/07/04 10:14:15;;;;;;;17.65;13.30;;;23.40;99.90;;;;;;4996533;23;20091;-82
2021/07/04 10:16:46;;;;;;;18.38;15.25;;;23.30;99.90;;;;;;5029462;28;20041;-82
2021/07/04 10:19:20;;;;;;;20.02;15.30;;;23.00;99.90;;;;;;5047107;28;20048;-81
2021/07/04 10:21:50;;;;;;;15.75;12.75;;;22.40;99.90;;;;;;5012902;28;20035;-80
2021/07/04 10:24:16;;;;;;;;;;;22.10;99.90;;;;;;5029634;28;20052;-80
2021/07/04 10:26:43;;;;;;;13.07;11.75;;;22.20;99.90;;;;;;5028981;28;19909;-81
2021/07/04 10:29:12;;;;;;;16.33;12.23;;;22.30;99.90;;;;;;5046735;28;20041;-80
2021/07/04 10:31:38;;;;;;;18.95;15.27;;;22.80;99.90;;;;;;5028914;28;20041;-80
2021/07/04 10:34:08;;;;;;;16.13;13.45;;;23.30;99.90;;;;;;5028148;28;20041;-81
2021/07/04 10:36:52;;;;;;;18.27;15.65;;;23.40;99.90;;;;;;5028519;28;20105;-81
2021/07/04 10:39:18;;;;;;;14.32;11.23;;;23.20;99.90;;;;;;5028216;28;20164;-80
2021/07/04 10:41:56;;;;;;;12.70;10.73;;;24.00;99.90;;;;;;5028580;28;20034;-80
2021/07/04 10:44:50;;;;;;;10.55;9.43;;;24.20;99.90;;;;;;5028481;28;20041;-82
2021/07/04 10:47:29;;;;;;;16.20;13.73;;;23.90;99.90;;;;;;5028178;28;20033;-81
2021/07/04 10:50:06;;;;;;;13.43;10.67;;;23.50;99.90;;;;;;5028598;28;20085;-81
2021/07/04 10:52:42;;;;;;;13.30;11.65;;;23.60;99.90;;;;;;5028544;28;20060;-81
2021/07/04 10:55:14;;;;;;;9.02;7.43;;;23.40;99.90;;;;;;5019594;28;20025;-82
2021/07/04 10:58:01;;;;;;;8.52;7.65;;;24.00;99.90;;;;;;5011805;28;20424;-82
2021/07/04 11:00:39;;;;;;;10.00;8.52;;;24.50;99.90;;;;;;5028338;28;20033;-81
2021/07/04 11:03:11;;;;;;;8.80;7.80;;;24.60;99.90;;;;;;5011684;28;20123;-82
2021/07/04 11:05:39;;;;;;;9.80;8.52;;;24.60;99.90;;;;;;5028706;28;20033;-81
2021/07/04 11:08:09;;;;;;;8.65;7.75;;;24.60;99.90;;;;;;5028036;28;20034;-81
2021/07/04 11:10:56;;;;;;;7.05;6.15;;;24.80;99.90;;;;;;5045480;28;20060;-82
2021/07/04 11:13:23;;;;;;;8.15;7.00;;;24.70;99.90;;;;;;5011409;28;20428;-82
2021/07/04 11:16:04;;;;;;;7.50;6.07;;;24.60;99.90;;;;;;5044589;28;20030;-82
2021/07/04 11:18:39;;;;;;;9.48;8.57;;;24.80;99.90;;;;;;5045521;28;20055;-82
2021/07/04 11:21:05;;;;;;;9.00;7.60;;;23.80;99.90;;;;;;5011945;28;20066;-82
2021/07/04 11:23:36;;;;;;;6.82;5.95;;;23.60;99.90;;;;;;5027947;28;20038;-82
2021/07/04 11:26:08;;;;;;;11.93;10.13;;;24.00;99.90;;;;;;5060880;28;20105;-82
2021/07/04 11:28:41;;;;;;;10.02;9.02;;;23.60;99.90;;;;;;5045556;28;20021;-82
2021/07/04 11:31:13;;;;;;;12.13;9.40;;;23.80;99.90;;;;;;5061130;28;20029;-82
2021/07/04 11:33:44;;;;;;;10.85;9.68;;;23.90;99.90;;;;;;5060691;28;20102;-82
2021/07/04 11:36:15;;;;;;;13.25;9.90;;;23.80;99.90;;;;;;5011571;28;20025;-82
2021/07/04 11:38:49;;;;;;;11.35;8.93;;;23.80;99.90;;;;;;5061508;28;20044;-82
2021/07/04 11:41:25;;;;;;;14.20;11.50;;;23.80;99.90;;;;;;5060538;28;20036;-82
2021/07/04 11:44:06;;;;;;;12.00;10.13;;;23.90;99.90;;;;;;5027423;28;20486;-82
2021/07/04 11:46:34;;;;;;;10.90;8.60;;;24.10;99.90;;;;;;5027604;28;20116;-81
2021/07/04 11:49:08;;;;;;;12.82;10.40;;;24.20;99.90;;;;;;5055558;23;20140;-81
2021/07/04 11:52:06;;;;;;;7.50;6.70;;;24.20;99.90;;;;;;5065673;28;20033;-82
2021/07/04 11:54:34;;;;;;;8.00;6.28;;;24.80;99.90;;;;;;5025200;28;20106;-81
2021/07/04 11:59:59;;;;;;;6.57;5.90;;;25.00;99.90;;;;;;5046883;28;20063;-81
2021/07/04 12:02:26;;;;;;;7.32;5.93;;;25.50;99.90;;;;;;5064961;28;20033;-81
2021/07/04 12:04:52;;;;;;;8.43;7.28;;;25.60;99.90;;;;;;5030465;28;20099;-81
2021/07/04 12:07:25;;;;;;;10.25;7.95;;;25.10;99.90;;;;;;5031013;28;20044;-81
2021/07/04 12:09:56;;;;;;;7.28;6.15;;;24.60;99.90;;;;;;5046886;28;20033;-81
2021/07/04 12:12:30;;;;;;;6.32;5.70;;;24.70;99.90;;;;;;5046986;28;20025;-81
2021/07/04 12:14:57;;;;;;;5.65;5.13;;;25.00;99.90;;;;;;5046819;28;20029;-81
2021/07/04 12:17:37;;;;;;;8.30;6.93;;;25.10;99.90;;;;;;5046647;28;20037;-81
2021/07/04 12:20:13;;;;;;;7.45;5.93;;;24.70;99.90;;;;;;5064930;28;20029;-81
2021/07/04 12:23:14;;;;;;;6.38;5.70;;;24.50;99.90;;;;;;5047235;28;20033;-81
2021/07/04 12:25:43;;;;;;;5.10;4.60;;;24.50;99.90;;;;;;5030215;28;20045;-81
2021/07/04 12:28:16;;;;;;;6.75;5.20;;;24.70;99.90;;;;;;5046842;28;20032;-81
2021/07/04 12:30:51;;;;;;;4.93;4.30;;;25.20;99.90;;;;;;5031765;28;20033;-82
2021/07/04 12:33:21;;;;;;;4.25;3.25;;;25.50;99.90;;;;;;5034416;28;20033;-81
2021/07/04 12:35:48;;;;;;;4.68;3.78;;;25.00;99.90;;;;;;5034268;28;20029;-81
2021/07/04 12:38:24;;;;;;;6.32;5.15;;;24.70;99.90;;;;;;5050895;28;20404;-81
2021/07/04 12:40:49;;;;;;;4.35;3.67;;;24.70;99.90;;;;;;5050782;28;20052;-81
2021/07/04 12:43:18;;;;;;;3.88;3.35;;;24.50;99.90;;;;;;5068563;28;20028;-81
2021/07/04 12:46:12;;;;;;;2.80;2.13;;;24.50;99.90;;;;;;5068659;28;20025;-81
2021/07/04 12:48:43;;;;;;;3.42;2.45;;;24.10;99.90;;;;;;4990115;28;20065;-81
2021/07/04 12:51:10;;;;;;;4.15;2.80;;;24.00;99.90;;;;;;4990259;28;20121;-82
2021/07/04 12:53:43;;;;;;;3.05;2.63;;;24.30;99.90;;;;;;5006840;28;20086;-82
2021/07/04 12:56:27;;;;;;;3.00;2.53;;;24.40;99.90;;;;;;5006475;28;20177;-81